createdAt,value
2023-04-26T00:00:36.590Z,2.50
2023-04-26T00:03:08.964Z,2.70
2023-04-26T00:05:42.323Z,2.83
2023-04-26T00:08:15.549Z,2.62
2023-04-26T00:10:47.851Z,3.33
2023-04-26T00:13:20.061Z,3.17
2023-04-26T00:15:52.223Z,2.55
2023-04-26T00:18:24.284Z,2.58
2023-04-26T00:20:56.610Z,2.80
2023-04-26T00:23:28.949Z,2.80
2023-04-26T00:26:01.085Z,2.87
2023-04-26T00:28:33.251Z,2.90
2023-04-26T00:31:05.453Z,2.52
2023-04-26T00:33:37.647Z,3.50
2023-04-26T00:36:10.166Z,3.08
2023-04-26T00:38:42.327Z,3.02
2023-04-26T00:41:14.909Z,3.17
2023-04-26T00:43:47.055Z,3.62
2023-04-26T00:46:19.112Z,3.65
2023-04-26T00:48:52.228Z,4.10
2023-04-26T00:51:24.762Z,3.90
2023-04-26T00:53:57.441Z,3.85
2023-04-26T00:56:30.702Z,3.77
2023-04-26T00:59:03.756Z,3.85
2023-04-26T01:01:36.657Z,4.40
2023-04-26T01:04:09.088Z,4.33
2023-04-26T01:06:42.131Z,3.90
2023-04-26T01:09:16.280Z,4.03
2023-04-26T01:11:49.275Z,4.30
2023-04-26T01:14:22.106Z,3.95
2023-04-26T01:16:54.146Z,3.87
2023-04-26T01:19:26.346Z,3.40
2023-04-26T01:21:58.609Z,3.47
2023-04-26T01:24:30.791Z,4.25
2023-04-26T01:27:04.261Z,3.52
2023-04-26T01:29:36.846Z,3.47
2023-04-26T01:32:08.937Z,3.70
2023-04-26T01:37:23.331Z,3.62
2023-04-26T01:39:55.959Z,3.47
2023-04-26T01:42:28.009Z,3.62
2023-04-26T01:45:00.131Z,3.98
2023-04-26T01:47:34.547Z,3.90
2023-04-26T01:50:07.580Z,3.60
2023-04-26T01:52:39.888Z,3.50
2023-04-26T01:55:12.107Z,3.60
2023-04-26T01:57:44.222Z,3.62
2023-04-26T02:00:17.259Z,4.08
2023-04-26T02:02:51.637Z,4.45
2023-04-26T02:05:24.573Z,3.42
2023-04-26T02:07:56.801Z,4.25
2023-04-26T02:10:28.887Z,3.92
2023-04-26T02:13:01.158Z,3.90
2023-04-26T02:15:33.532Z,4.33
2023-04-26T02:18:06.593Z,4.35
2023-04-26T02:20:43.378Z,5.58
2023-04-26T02:23:15.741Z,4.50
2023-04-26T02:25:49.711Z,4.62
2023-04-26T02:28:22.050Z,4.50
2023-04-26T02:30:54.445Z,4.92
2023-04-26T02:33:26.655Z,4.60
2023-04-26T02:35:58.809Z,4.10
2023-04-26T02:38:30.990Z,4.55
2023-04-26T02:41:04.082Z,5.37
2023-04-26T02:43:37.344Z,5.87
2023-04-26T02:46:10.001Z,6.58
2023-04-26T02:48:42.225Z,5.90
2023-04-26T02:51:14.717Z,5.10
2023-04-26T02:53:46.954Z,5.90
2023-04-26T02:56:19.687Z,5.10
2023-04-26T02:58:52.004Z,4.30
2023-04-26T03:01:24.447Z,5.58
2023-04-26T03:03:58.698Z,5.50
2023-04-26T03:06:30.424Z,4.75
2023-04-26T03:09:05.645Z,5.05
2023-04-26T03:11:38.000Z,5.25
2023-04-26T03:14:10.141Z,4.95
2023-04-26T03:16:46.118Z,4.55
2023-04-26T03:19:18.818Z,5.30
2023-04-26T03:21:51.204Z,5.00
2023-04-26T03:24:23.858Z,4.97
2023-04-26T03:26:56.001Z,6.12
2023-04-26T03:29:28.277Z,5.10
2023-04-26T03:32:00.680Z,7.42
2023-04-26T03:34:32.911Z,5.72
2023-04-26T03:37:05.331Z,7.70
2023-04-26T03:39:37.450Z,5.80
2023-04-26T03:42:10.478Z,6.15
2023-04-26T03:44:43.091Z,6.72
2023-04-26T03:47:17.035Z,6.87
2023-04-26T03:49:49.152Z,8.38
2023-04-26T03:52:21.412Z,9.15
2023-04-26T03:54:53.655Z,7.87
2023-04-26T03:57:25.825Z,6.67
2023-04-26T03:59:58.354Z,7.25
2023-04-26T04:05:04.144Z,7.45
2023-04-26T04:07:36.494Z,7.00
2023-04-26T04:10:10.747Z,7.62
2023-04-26T04:12:44.720Z,6.22
2023-04-26T04:15:17.486Z,7.47
2023-04-26T04:17:52.086Z,5.55
2023-04-26T04:20:25.368Z,6.15
2023-04-26T04:22:59.270Z,5.80
2023-04-26T04:25:31.641Z,5.12
2023-04-26T04:28:05.655Z,5.30
2023-04-26T04:30:38.652Z,3.70
2023-04-26T04:33:10.948Z,3.77
2023-04-26T04:35:45.086Z,4.30
2023-04-26T04:38:17.572Z,3.75
2023-04-26T04:40:50.584Z,4.85
2023-04-26T04:43:23.624Z,3.05
2023-04-26T04:45:56.316Z,4.03
2023-04-26T04:48:29.084Z,3.65
2023-04-26T04:51:02.792Z,4.08
2023-04-26T04:53:35.268Z,2.90
2023-04-26T04:56:07.927Z,3.22
2023-04-26T04:58:40.908Z,2.40
2023-04-26T05:01:13.755Z,3.08
2023-04-26T05:03:50.875Z,3.05
2023-04-26T05:06:24.497Z,2.87
2023-04-26T05:09:00.133Z,3.47
2023-04-26T05:11:33.214Z,2.87
2023-04-26T05:14:06.350Z,2.00
2023-04-26T05:16:38.818Z,2.20
2023-04-26T05:19:12.005Z,1.85
2023-04-26T05:21:44.274Z,1.80
2023-04-26T05:24:16.485Z,2.00
2023-04-26T05:26:49.155Z,2.75
2023-04-26T05:29:39.650Z,2.20
2023-04-26T05:32:13.948Z,2.22
2023-04-26T05:34:47.887Z,1.90
2023-04-26T05:37:21.632Z,1.82
2023-04-26T05:39:54.271Z,2.08
2023-04-26T05:42:26.402Z,1.65
2023-04-26T05:45:01.821Z,1.30
2023-04-26T05:47:34.820Z,1.95
2023-04-26T05:50:08.500Z,1.30
2023-04-26T05:52:40.737Z,1.50
2023-04-26T05:55:13.777Z,1.30
2023-04-26T05:57:46.119Z,1.10
2023-04-26T06:00:20.363Z,2.10
2023-04-26T06:02:53.151Z,1.42
2023-04-26T06:05:26.002Z,1.60
2023-04-26T06:07:58.690Z,1.60
2023-04-26T06:10:31.073Z,1.22
2023-04-26T06:13:04.208Z,1.10
2023-04-26T06:15:38.428Z,1.90
2023-04-26T06:18:10.641Z,1.30
2023-04-26T06:20:43.269Z,2.33
2023-04-26T06:23:18.080Z,1.52
2023-04-26T06:25:51.246Z,1.67
2023-04-26T06:28:23.507Z,1.22
2023-04-26T06:30:55.679Z,1.40
2023-04-26T06:33:28.756Z,1.40
2023-04-26T06:36:01.124Z,1.50
2023-04-26T06:38:33.486Z,1.47
2023-04-26T06:41:06.279Z,1.10
2023-04-26T06:43:38.928Z,1.82
2023-04-26T06:46:13.200Z,1.10
2023-04-26T06:48:46.667Z,1.50
2023-04-26T06:51:19.216Z,1.40
2023-04-26T06:53:52.988Z,1.15
2023-04-26T06:56:25.926Z,1.72
2023-04-26T06:59:03.672Z,1.32
2023-04-26T07:01:36.847Z,1.60
2023-04-26T07:04:11.263Z,1.80
2023-04-26T07:06:44.191Z,2.20
2023-04-26T07:09:16.322Z,2.00
2023-04-26T07:11:48.659Z,2.62
2023-04-26T07:14:20.797Z,1.50
2023-04-26T07:16:52.961Z,1.50
2023-04-26T07:19:25.508Z,1.70
2023-04-26T07:21:57.874Z,1.50
2023-04-26T07:24:30.252Z,1.47
2023-04-26T07:27:02.483Z,1.77
2023-04-26T07:29:34.654Z,2.20
2023-04-26T07:32:07.387Z,1.20
2023-04-26T07:34:39.792Z,1.35
2023-04-26T07:37:12.362Z,1.50
2023-04-26T07:39:44.774Z,1.50
2023-04-26T07:42:17.170Z,1.47
2023-04-26T07:44:50.913Z,1.47
2023-04-26T07:47:23.186Z,2.47
2023-04-26T07:49:56.213Z,1.98
2023-04-26T07:52:28.400Z,1.80
2023-04-26T07:55:00.991Z,1.55
2023-04-26T07:57:34.011Z,1.70
2023-04-26T08:00:09.164Z,2.00
2023-04-26T08:02:45.190Z,2.12
2023-04-26T08:05:18.217Z,2.20
2023-04-26T08:07:50.658Z,1.90
2023-04-26T08:10:22.774Z,1.40
2023-04-26T08:12:57.421Z,1.60
2023-04-26T08:15:30.817Z,1.80
2023-04-26T08:18:03.318Z,1.90
2023-04-26T08:20:35.456Z,2.00
2023-04-26T08:23:07.611Z,2.40
2023-04-26T08:25:39.664Z,2.70
2023-04-26T08:28:13.400Z,4.87
2023-04-26T08:30:45.848Z,2.40
2023-04-26T08:33:19.956Z,2.72
2023-04-26T08:35:52.617Z,2.87
2023-04-26T08:38:24.998Z,2.60
2023-04-26T08:40:59.663Z,3.58
2023-04-26T08:43:32.367Z,2.90
2023-04-26T08:46:07.526Z,1.80
2023-04-26T08:48:39.990Z,1.85
2023-04-26T08:51:14.133Z,2.75
2023-04-26T08:53:46.578Z,2.47
2023-04-26T08:56:19.321Z,2.80
2023-04-26T08:58:52.309Z,2.92
2023-04-26T09:01:26.463Z,2.70
2023-04-26T09:04:00.534Z,3.80
2023-04-26T09:06:34.861Z,3.37
2023-04-26T09:09:10.030Z,2.77
2023-04-26T09:12:03.332Z,3.17
2023-04-26T09:14:36.122Z,3.67
2023-04-26T09:17:09.706Z,3.77
2023-04-26T09:19:45.706Z,2.65
2023-04-26T09:22:31.971Z,2.62
2023-04-26T09:25:07.588Z,2.77
2023-04-26T09:27:44.444Z,2.80
2023-04-26T09:30:20.848Z,3.17
2023-04-26T09:33:04.960Z,3.20
2023-04-26T09:35:42.253Z,8.03
2023-04-26T09:38:16.368Z,3.92
2023-04-26T09:40:50.493Z,2.90
2023-04-26T09:43:23.366Z,3.90
2023-04-26T09:45:57.416Z,3.70
2023-04-26T09:48:32.264Z,3.85
2023-04-26T09:51:12.511Z,4.30
2023-04-26T09:53:50.186Z,3.85
2023-04-26T09:56:22.540Z,3.45
2023-04-26T09:59:01.423Z,4.40
2023-04-26T10:01:35.190Z,3.40
2023-04-26T10:04:08.856Z,4.53
2023-04-26T10:06:41.302Z,3.55
2023-04-26T10:09:14.142Z,3.95
2023-04-26T10:11:46.190Z,4.80
2023-04-26T10:14:18.173Z,3.55
2023-04-26T10:16:51.015Z,3.80
2023-04-26T10:19:24.597Z,3.60
2023-04-26T10:21:59.644Z,6.60
2023-04-26T10:24:31.796Z,6.40
2023-04-26T10:27:05.492Z,4.12
2023-04-26T10:29:57.107Z,4.73
2023-04-26T10:32:29.257Z,4.62
2023-04-26T10:35:15.079Z,4.37
2023-04-26T10:38:05.987Z,4.12
2023-04-26T10:40:42.083Z,4.53
2023-04-26T10:43:18.328Z,3.80
2023-04-26T10:45:51.462Z,3.70
2023-04-26T10:48:25.918Z,4.50
2023-04-26T10:51:08.284Z,3.50
2023-04-26T10:53:52.518Z,4.28
2023-04-26T10:56:31.038Z,4.40
2023-04-26T10:59:33.214Z,3.35
2023-04-26T11:01:48.664Z,3.67
2023-04-26T11:04:21.469Z,3.72
2023-04-26T11:06:54.788Z,2.58
2023-04-26T11:09:41.547Z,2.42
2023-04-26T11:12:16.647Z,3.08
2023-04-26T11:14:49.682Z,3.65
2023-04-26T11:17:22.400Z,1.95
2023-04-26T11:19:56.680Z,3.42
2023-04-26T11:22:30.440Z,4.28
2023-04-26T11:27:34.823Z,1.82
2023-04-26T11:30:08.436Z,2.58
2023-04-26T11:32:40.975Z,1.72
2023-04-26T11:35:13.764Z,1.05
2023-04-26T11:37:49.103Z,1.62
2023-04-26T11:40:21.948Z,1.10
2023-04-26T11:42:55.010Z,0.70
2023-04-26T11:45:27.323Z,1.30
2023-04-26T11:48:00.068Z,1.10
2023-04-26T11:50:34.921Z,1.65
2023-04-26T11:53:08.868Z,2.27
2023-04-26T11:55:42.227Z,1.62
2023-04-26T11:58:15.793Z,1.17
2023-04-26T12:01:05.764Z,1.70
2023-04-26T12:03:38.451Z,1.47
2023-04-26T12:06:11.172Z,1.60
2023-04-26T12:08:43.416Z,1.05
2023-04-26T12:11:18.164Z,1.10
2023-04-26T12:13:51.048Z,1.50
2023-04-26T12:16:26.662Z,1.67
2023-04-26T12:18:58.874Z,1.07
2023-04-26T12:21:31.231Z,1.22
2023-04-26T12:24:03.594Z,1.47
2023-04-26T12:26:45.938Z,1.90
2023-04-26T12:29:18.411Z,1.10
2023-04-26T12:31:50.920Z,1.70
2023-04-26T12:34:23.201Z,1.20
2023-04-26T12:36:55.980Z,1.10
2023-04-26T12:39:28.580Z,1.75
2023-04-26T12:42:00.688Z,1.87
2023-04-26T12:44:33.051Z,1.32
2023-04-26T12:47:05.528Z,1.32
2023-04-26T12:49:37.975Z,1.32
2023-04-26T12:52:10.393Z,1.25
2023-04-26T12:54:42.953Z,1.45
2023-04-26T12:57:15.796Z,2.35
2023-04-26T12:59:48.484Z,1.82
2023-04-26T13:02:20.572Z,1.42
2023-04-26T13:04:52.990Z,16.23
2023-04-26T13:07:25.441Z,1.70
2023-04-26T13:09:58.164Z,3.52
2023-04-26T13:12:30.474Z,1.85
2023-04-26T13:15:04.122Z,3.45
2023-04-26T13:17:38.591Z,1.37
2023-04-26T13:20:11.518Z,1.70
2023-04-26T13:22:43.904Z,1.25
2023-04-26T13:25:17.508Z,1.70
2023-04-26T13:27:49.586Z,1.60
2023-04-26T13:30:21.935Z,1.37
2023-04-26T13:32:54.106Z,3.20
2023-04-26T13:35:26.566Z,1.60
2023-04-26T13:37:58.839Z,2.37
2023-04-26T13:40:31.294Z,1.05
2023-04-26T13:43:04.184Z,4.62
2023-04-26T13:45:36.403Z,2.12
2023-04-26T13:48:08.728Z,1.40
2023-04-26T13:50:41.030Z,1.45
2023-04-26T13:53:13.421Z,2.45
2023-04-26T13:55:45.825Z,2.20
2023-04-26T13:58:18.560Z,1.05
2023-04-26T14:00:51.047Z,1.60
2023-04-26T14:03:23.494Z,1.70
2023-04-26T14:05:56.687Z,1.20
2023-04-26T14:08:29.015Z,1.03
2023-04-26T14:11:01.288Z,1.57
2023-04-26T14:13:33.728Z,1.87
2023-04-26T14:16:06.714Z,1.30
2023-04-26T14:18:40.982Z,1.95
2023-04-26T14:21:13.751Z,1.80
2023-04-26T14:23:46.235Z,1.27
2023-04-26T14:26:18.476Z,1.82
2023-04-26T14:28:50.815Z,1.62
2023-04-26T14:31:24.661Z,1.45
2023-04-26T14:33:58.917Z,1.60
2023-04-26T14:39:02.499Z,1.70
2023-04-26T14:41:35.196Z,1.85
2023-04-26T14:44:07.440Z,1.30
2023-04-26T14:46:39.685Z,2.22
2023-04-26T14:49:12.076Z,1.85
2023-04-26T14:51:44.241Z,2.77
2023-04-26T14:54:16.610Z,2.00
2023-04-26T14:56:49.648Z,2.67
2023-04-26T14:59:22.678Z,2.55
2023-04-26T15:01:55.006Z,2.00
2023-04-26T15:04:27.422Z,1.62
2023-04-26T15:07:00.118Z,4.72
2023-04-26T15:09:32.676Z,1.87
2023-04-26T15:12:05.125Z,1.45
2023-04-26T15:14:37.394Z,1.42
2023-04-26T15:17:09.631Z,1.70
2023-04-26T15:19:42.113Z,1.90
2023-04-26T15:22:14.381Z,1.90
2023-04-26T15:24:46.635Z,1.67
2023-04-26T15:27:18.751Z,2.90
2023-04-26T15:29:51.137Z,2.65
2023-04-26T15:32:23.474Z,2.05
2023-04-26T15:34:56.079Z,2.25
2023-04-26T15:37:28.254Z,2.20
2023-04-26T15:40:00.456Z,2.27
2023-04-26T15:42:33.535Z,2.10
2023-04-26T15:45:07.053Z,2.22
2023-04-26T15:47:39.821Z,1.90
2023-04-26T15:50:12.699Z,2.30
2023-04-26T15:52:46.537Z,1.80
2023-04-26T15:55:19.510Z,1.65
2023-04-26T15:57:52.397Z,2.25
2023-04-26T16:00:27.039Z,2.20
2023-04-26T16:02:59.509Z,1.98
2023-04-26T16:05:32.258Z,2.90
2023-04-26T16:08:05.793Z,1.80
2023-04-26T16:10:38.556Z,2.83
2023-04-26T16:13:10.766Z,1.70
2023-04-26T16:15:43.587Z,2.02
2023-04-26T16:18:15.662Z,4.05
2023-04-26T16:20:51.246Z,1.37
2023-04-26T16:23:23.760Z,1.52
2023-04-26T16:25:57.228Z,2.50
2023-04-26T16:28:29.329Z,2.40
2023-04-26T16:31:01.664Z,3.75
2023-04-26T16:33:34.435Z,3.90
2023-04-26T16:36:06.928Z,2.85
2023-04-26T16:38:39.146Z,2.55
2023-04-26T16:41:11.460Z,2.25
2023-04-26T16:43:43.703Z,1.52
2023-04-26T16:46:16.056Z,2.25
2023-04-26T16:48:49.992Z,2.20
2023-04-26T16:51:22.632Z,2.92
2023-04-26T16:53:56.354Z,2.70
2023-04-26T16:56:28.497Z,2.85
2023-04-26T16:59:00.569Z,2.05
2023-04-26T17:01:33.092Z,2.33
2023-04-26T17:04:05.672Z,3.02
2023-04-26T17:06:38.115Z,2.58
2023-04-26T17:09:10.183Z,3.30
2023-04-26T17:11:44.316Z,2.15
2023-04-26T17:14:16.708Z,2.67
2023-04-26T17:16:49.418Z,2.17
2023-04-26T17:19:22.002Z,1.72
2023-04-26T17:21:54.976Z,2.52
2023-04-26T17:24:27.256Z,2.17
2023-04-26T17:26:59.369Z,2.17
2023-04-26T17:29:31.654Z,2.62
2023-04-26T17:32:03.833Z,2.58
2023-04-26T17:34:37.721Z,3.30
2023-04-26T17:37:09.790Z,2.70
2023-04-26T17:39:42.226Z,3.02
2023-04-26T17:42:14.419Z,3.02
2023-04-26T17:44:46.733Z,3.20
2023-04-26T17:47:19.079Z,3.05
2023-04-26T17:49:51.156Z,2.33
2023-04-26T17:52:23.271Z,4.00
2023-04-26T17:54:55.868Z,2.60
2023-04-26T17:57:27.966Z,1.98
2023-04-26T18:00:00.375Z,2.45
2023-04-26T18:02:34.199Z,2.22
2023-04-26T18:05:08.690Z,3.20
2023-04-26T18:07:40.971Z,2.72
2023-04-26T18:10:13.133Z,3.17
2023-04-26T18:12:45.322Z,3.50
2023-04-26T18:15:18.777Z,2.85
2023-04-26T18:17:51.666Z,3.02
2023-04-26T18:20:24.079Z,3.10
2023-04-26T18:22:56.095Z,4.10
2023-04-26T18:25:28.292Z,2.25
2023-04-26T18:28:00.989Z,3.33
2023-04-26T18:30:33.167Z,4.17
2023-04-26T18:33:05.527Z,2.40
2023-04-26T18:35:37.809Z,2.50
2023-04-26T18:38:10.241Z,2.17
2023-04-26T18:40:46.221Z,2.70
2023-04-26T18:43:18.583Z,2.87
2023-04-26T18:45:52.693Z,2.37
2023-04-26T18:48:25.007Z,2.77
2023-04-26T18:50:57.501Z,3.17
2023-04-26T18:53:29.653Z,2.70
2023-04-26T18:56:02.213Z,2.90
2023-04-26T18:58:43.309Z,3.30
2023-04-26T19:01:15.624Z,2.33
2023-04-26T19:03:48.955Z,2.77
2023-04-26T19:06:21.685Z,4.17
2023-04-26T19:08:53.991Z,3.20
2023-04-26T19:11:26.320Z,3.62
2023-04-26T19:13:58.401Z,4.08
2023-04-26T19:16:30.952Z,4.33
2023-04-26T19:19:03.399Z,3.08
2023-04-26T19:21:36.705Z,3.65
2023-04-26T19:24:09.066Z,2.98
2023-04-26T19:26:42.238Z,3.77
2023-04-26T19:29:14.742Z,3.30
2023-04-26T19:31:46.942Z,3.37
2023-04-26T19:34:19.023Z,2.30
2023-04-26T19:36:51.345Z,2.92
2023-04-26T19:39:23.849Z,3.17
2023-04-26T19:41:56.410Z,2.37
2023-04-26T19:44:28.364Z,2.95
2023-04-26T19:47:00.807Z,1.98
2023-04-26T19:49:33.291Z,2.62
2023-04-26T19:52:05.572Z,2.55
2023-04-26T19:54:37.602Z,3.22
2023-04-26T19:57:09.651Z,2.37
2023-04-26T19:59:41.652Z,2.87
2023-04-26T20:02:13.879Z,3.12
2023-04-26T20:04:46.126Z,3.00
2023-04-26T20:07:18.170Z,2.30
2023-04-26T20:09:50.232Z,2.70
2023-04-26T20:12:22.297Z,2.40
2023-04-26T20:14:54.370Z,2.90
2023-04-26T20:17:26.445Z,1.90
2023-04-26T20:19:58.652Z,2.33
2023-04-26T20:22:31.075Z,2.90
2023-04-26T20:25:04.252Z,2.47
2023-04-26T20:27:36.189Z,2.85
2023-04-26T20:30:09.464Z,2.60
2023-04-26T20:32:41.835Z,3.30
2023-04-26T20:35:14.206Z,3.10
2023-04-26T20:37:46.458Z,3.30
2023-04-26T20:40:18.868Z,3.20
2023-04-26T20:42:51.474Z,2.87
2023-04-26T20:45:24.000Z,2.92
2023-04-26T20:47:56.172Z,3.40
2023-04-26T20:50:28.372Z,3.30
2023-04-26T20:53:00.682Z,2.80
2023-04-26T20:55:32.844Z,3.37
2023-04-26T20:58:04.825Z,2.77
2023-04-26T21:00:37.143Z,3.25
2023-04-26T21:03:09.499Z,3.10
2023-04-26T21:05:41.920Z,2.77
2023-04-26T21:08:14.139Z,3.12
2023-04-26T21:10:46.652Z,2.90
2023-04-26T21:13:18.978Z,3.27
2023-04-26T21:15:51.296Z,3.70
2023-04-26T21:18:24.034Z,2.90
2023-04-26T21:20:57.023Z,2.40
2023-04-26T21:23:29.105Z,2.98
2023-04-26T21:26:01.096Z,3.33
2023-04-26T21:28:33.407Z,2.90
2023-04-26T21:31:06.640Z,3.20
2023-04-26T21:33:38.842Z,2.90
2023-04-26T21:36:11.356Z,3.08
2023-04-26T21:38:43.348Z,3.20
2023-04-26T21:41:15.423Z,2.47
2023-04-26T21:43:47.418Z,2.95
2023-04-26T21:46:20.065Z,3.05
2023-04-26T21:48:52.296Z,2.60
2023-04-26T21:51:24.659Z,3.25
2023-04-26T21:53:56.658Z,2.92
2023-04-26T21:56:28.754Z,2.90
2023-04-26T21:59:02.601Z,3.55
2023-04-26T22:01:35.003Z,3.17
2023-04-26T22:04:07.404Z,2.90
2023-04-26T22:06:39.602Z,3.37
2023-04-26T22:09:11.979Z,3.02
2023-04-26T22:11:44.359Z,3.17
2023-04-26T22:14:16.560Z,3.47
2023-04-26T22:16:48.917Z,2.85
2023-04-26T22:19:21.206Z,2.87
2023-04-26T22:21:56.064Z,3.15
2023-04-26T22:24:27.142Z,3.47
2023-04-26T22:26:59.477Z,3.15
2023-04-26T22:29:32.071Z,2.98
2023-04-26T22:32:04.114Z,2.98
2023-04-26T22:34:36.690Z,3.30
2023-04-26T22:37:20.292Z,2.95
2023-04-26T22:39:42.663Z,2.85
2023-04-26T22:42:14.853Z,3.10
2023-04-26T22:44:46.986Z,2.98
2023-04-26T22:47:19.205Z,2.67
2023-04-26T22:49:51.404Z,3.02
2023-04-26T22:52:31.565Z,2.60
2023-04-26T22:54:57.314Z,3.30
2023-04-26T22:57:31.290Z,2.83
2023-04-26T23:00:04.673Z,2.83
2023-04-26T23:02:37.136Z,2.85
2023-04-26T23:05:13.094Z,3.50
2023-04-26T23:07:45.701Z,3.30
2023-04-26T23:10:17.915Z,3.25
2023-04-26T23:12:51.076Z,3.08
2023-04-26T23:15:23.834Z,2.50
2023-04-26T23:17:56.282Z,2.60
2023-04-26T23:20:29.042Z,3.10
2023-04-26T23:23:01.034Z,3.00
2023-04-26T23:25:33.314Z,3.60
2023-04-26T23:28:05.237Z,2.95
2023-04-26T23:30:37.342Z,2.90
2023-04-26T23:33:09.874Z,2.87
2023-04-26T23:35:43.009Z,3.37
2023-04-26T23:38:15.353Z,2.90
2023-04-26T23:40:47.796Z,3.30
2023-04-26T23:43:19.850Z,3.35
2023-04-26T23:45:52.067Z,3.20
2023-04-26T23:48:24.307Z,3.05
2023-04-26T23:50:56.402Z,4.12
2023-04-26T23:53:28.702Z,3.12
2023-04-26T23:56:00.870Z,2.75
2023-04-26T23:58:33.051Z,3.47
